Aviation Digital Data Service (ADDS)

Output produced by TAFs form (0840 UTC 23 October 2014)
found at http://www.aviationweather.gov/adds/tafs/
 
KABE 230533Z 2306/2406 33016G24KT P6SM -RA SCT025 OVC045 
     FM230900 33015G23KT P6SM -RA SCT015 OVC025 
     FM231400 34017G28KT P6SM OVC025 
     TEMPO 2314/2318 P6SM -RA OVC015 
     FM232100 34016G24KT P6SM SCT025 OVC050 
     FM240200 33010KT P6SM SCT025 OVC050